sensor_id;sensor_type;location;lat;lon;timestamp;P1;durP1;ratioP1;P2;durP2;ratioP2
10170;SDS011;5127;50.922;6.988;2022-08-27T00:02:18;1.80;;;1.70;;
10170;SDS011;5127;50.922;6.988;2022-08-27T00:04:47;2.42;;;1.92;;
10170;SDS011;5127;50.922;6.988;2022-08-27T00:07:14;2.47;;;2.38;;
10170;SDS011;5127;50.922;6.988;2022-08-27T00:09:42;2.67;;;2.47;;
10170;SDS011;5127;50.922;6.988;2022-08-27T00:12:09;2.83;;;2.28;;
10170;SDS011;5127;50.922;6.988;2022-08-27T00:14:37;2.13;;;2.03;;
10170;SDS011;5127;50.922;6.988;2022-08-27T00:17:05;2.47;;;2.15;;
10170;SDS011;5127;50.922;6.988;2022-08-27T00:19:33;2.60;;;2.40;;
10170;SDS011;5127;50.922;6.988;2022-08-27T00:22:03;2.72;;;2.53;;
10170;SDS011;5127;50.922;6.988;2022-08-27T00:24:31;3.00;;;2.05;;
10170;SDS011;5127;50.922;6.988;2022-08-27T00:26:58;2.42;;;2.22;;
10170;SDS011;5127;50.922;6.988;2022-08-27T00:29:26;4.00;;;2.63;;
10170;SDS011;5127;50.922;6.988;2022-08-27T00:31:53;1.98;;;1.83;;
10170;SDS011;5127;50.922;6.988;2022-08-27T00:34:21;3.28;;;2.97;;
10170;SDS011;5127;50.922;6.988;2022-08-27T00:36:49;3.03;;;2.78;;
10170;SDS011;5127;50.922;6.988;2022-08-27T00:39:19;2.00;;;1.90;;
10170;SDS011;5127;50.922;6.988;2022-08-27T00:41:46;2.75;;;2.17;;
10170;SDS011;5127;50.922;6.988;2022-08-27T00:44:14;2.63;;;2.40;;
10170;SDS011;5127;50.922;6.988;2022-08-27T00:46:43;3.55;;;2.38;;
10170;SDS011;5127;50.922;6.988;2022-08-27T00:49:15;3.15;;;2.78;;
10170;SDS011;5127;50.922;6.988;2022-08-27T00:51:47;3.00;;;2.80;;
10170;SDS011;5127;50.922;6.988;2022-08-27T00:54:19;4.00;;;3.63;;
10170;SDS011;5127;50.922;6.988;2022-08-27T00:56:47;4.40;;;4.10;;
10170;SDS011;5127;50.922;6.988;2022-08-27T00:59:15;6.18;;;5.68;;
10170;SDS011;5127;50.922;6.988;2022-08-27T01:01:45;6.00;;;5.50;;
10170;SDS011;5127;50.922;6.988;2022-08-27T01:04:30;5.35;;;4.95;;
10170;SDS011;5127;50.922;6.988;2022-08-27T01:06:59;6.40;;;5.25;;
10170;SDS011;5127;50.922;6.988;2022-08-27T01:09:29;6.10;;;5.50;;
10170;SDS011;5127;50.922;6.988;2022-08-27T01:11:56;5.80;;;5.30;;
10170;SDS011;5127;50.922;6.988;2022-08-27T01:14:24;6.05;;;5.50;;
10170;SDS011;5127;50.922;6.988;2022-08-27T01:16:53;5.40;;;5.00;;
10170;SDS011;5127;50.922;6.988;2022-08-27T01:19:25;5.65;;;5.15;;
10170;SDS011;5127;50.922;6.988;2022-08-27T01:21:56;4.78;;;4.40;;
10170;SDS011;5127;50.922;6.988;2022-08-27T01:24:32;5.40;;;4.90;;
10170;SDS011;5127;50.922;6.988;2022-08-27T01:27:02;5.38;;;4.88;;
10170;SDS011;5127;50.922;6.988;2022-08-27T01:29:33;5.10;;;4.68;;
10170;SDS011;5127;50.922;6.988;2022-08-27T01:32:04;5.47;;;4.60;;
10170;SDS011;5127;50.922;6.988;2022-08-27T01:34:35;4.90;;;4.50;;
10170;SDS011;5127;50.922;6.988;2022-08-27T01:37:02;6.40;;;5.28;;
10170;SDS011;5127;50.922;6.988;2022-08-27T01:39:33;7.22;;;6.53;;
10170;SDS011;5127;50.922;6.988;2022-08-27T01:42:03;9.13;;;8.23;;
10170;SDS011;5127;50.922;6.988;2022-08-27T01:44:43;13.77;;;12.48;;
10170;SDS011;5127;50.922;6.988;2022-08-27T01:47:12;15.50;;;14.00;;
10170;SDS011;5127;50.922;6.988;2022-08-27T01:49:39;16.38;;;14.77;;
10170;SDS011;5127;50.922;6.988;2022-08-27T01:52:07;15.90;;;14.45;;
10170;SDS011;5127;50.922;6.988;2022-08-27T01:54:36;17.33;;;15.63;;
10170;SDS011;5127;50.922;6.988;2022-08-27T01:57:03;19.65;;;17.67;;
10170;SDS011;5127;50.922;6.988;2022-08-27T01:59:32;18.17;;;16.27;;
10170;SDS011;5127;50.922;6.988;2022-08-27T02:02:00;17.73;;;15.93;;
10170;SDS011;5127;50.922;6.988;2022-08-27T02:04:28;16.58;;;15.02;;
10170;SDS011;5127;50.922;6.988;2022-08-27T02:06:56;18.05;;;16.35;;
10170;SDS011;5127;50.922;6.988;2022-08-27T02:09:24;18.42;;;16.42;;
10170;SDS011;5127;50.922;6.988;2022-08-27T02:11:53;18.48;;;16.60;;
10170;SDS011;5127;50.922;6.988;2022-08-27T02:14:20;18.30;;;16.42;;
10170;SDS011;5127;50.922;6.988;2022-08-27T02:16:48;16.50;;;14.95;;
10170;SDS011;5127;50.922;6.988;2022-08-27T02:19:16;16.55;;;15.00;;
10170;SDS011;5127;50.922;6.988;2022-08-27T02:21:43;17.20;;;15.48;;
10170;SDS011;5127;50.922;6.988;2022-08-27T02:24:11;17.48;;;15.68;;
10170;SDS011;5127;50.922;6.988;2022-08-27T02:26:38;18.00;;;16.30;;
10170;SDS011;5127;50.922;6.988;2022-08-27T02:29:07;18.48;;;16.70;;
10170;SDS011;5127;50.922;6.988;2022-08-27T02:31:35;19.45;;;17.45;;
10170;SDS011;5127;50.922;6.988;2022-08-27T02:34:02;18.60;;;16.80;;
10170;SDS011;5127;50.922;6.988;2022-08-27T02:36:30;19.73;;;17.73;;
10170;SDS011;5127;50.922;6.988;2022-08-27T02:38:57;18.80;;;16.80;;
10170;SDS011;5127;50.922;6.988;2022-08-27T02:41:25;18.77;;;16.85;;
10170;SDS011;5127;50.922;6.988;2022-08-27T02:43:53;17.10;;;15.40;;
10170;SDS011;5127;50.922;6.988;2022-08-27T02:46:21;17.23;;;15.00;;
10170;SDS011;5127;50.922;6.988;2022-08-27T02:48:48;18.50;;;16.42;;
10170;SDS011;5127;50.922;6.988;2022-08-27T02:51:16;19.13;;;17.08;;
10170;SDS011;5127;50.922;6.988;2022-08-27T02:53:43;18.58;;;16.73;;
10170;SDS011;5127;50.922;6.988;2022-08-27T02:56:10;19.35;;;17.25;;
10170;SDS011;5127;50.922;6.988;2022-08-27T02:58:37;19.52;;;16.80;;
10170;SDS011;5127;50.922;6.988;2022-08-27T03:01:06;18.10;;;16.20;;
10170;SDS011;5127;50.922;6.988;2022-08-27T03:03:35;18.88;;;16.73;;
10170;SDS011;5127;50.922;6.988;2022-08-27T03:06:02;18.17;;;16.27;;
10170;SDS011;5127;50.922;6.988;2022-08-27T03:08:30;17.08;;;15.38;;
10170;SDS011;5127;50.922;6.988;2022-08-27T03:10:57;17.95;;;16.08;;
10170;SDS011;5127;50.922;6.988;2022-08-27T03:13:24;17.50;;;15.45;;
10170;SDS011;5127;50.922;6.988;2022-08-27T03:15:52;16.45;;;14.27;;
10170;SDS011;5127;50.922;6.988;2022-08-27T03:18:19;15.63;;;13.98;;
10170;SDS011;5127;50.922;6.988;2022-08-27T03:20:48;13.35;;;12.07;;
10170;SDS011;5127;50.922;6.988;2022-08-27T03:23:17;13.88;;;11.80;;
10170;SDS011;5127;50.922;6.988;2022-08-27T03:25:50;13.77;;;12.38;;
10170;SDS011;5127;50.922;6.988;2022-08-27T03:28:19;12.57;;;11.27;;
10170;SDS011;5127;50.922;6.988;2022-08-27T03:30:48;11.63;;;10.45;;
10170;SDS011;5127;50.922;6.988;2022-08-27T03:33:16;11.38;;;10.18;;
10170;SDS011;5127;50.922;6.988;2022-08-27T03:35:44;13.27;;;10.57;;
10170;SDS011;5127;50.922;6.988;2022-08-27T03:38:13;10.90;;;9.55;;
10170;SDS011;5127;50.922;6.988;2022-08-27T03:40:41;11.90;;;10.40;;
10170;SDS011;5127;50.922;6.988;2022-08-27T03:43:09;10.75;;;9.65;;
10170;SDS011;5127;50.922;6.988;2022-08-27T03:45:38;10.82;;;9.40;;
10170;SDS011;5127;50.922;6.988;2022-08-27T03:48:08;11.38;;;9.43;;
10170;SDS011;5127;50.922;6.988;2022-08-27T03:50:36;11.05;;;9.85;;
10170;SDS011;5127;50.922;6.988;2022-08-27T03:53:04;13.27;;;9.73;;
10170;SDS011;5127;50.922;6.988;2022-08-27T03:55:33;14.50;;;11.00;;
10170;SDS011;5127;50.922;6.988;2022-08-27T03:58:00;12.40;;;10.15;;
10170;SDS011;5127;50.922;6.988;2022-08-27T04:00:27;11.88;;;10.15;;
10170;SDS011;5127;50.922;6.988;2022-08-27T04:02:55;13.13;;;9.82;;
10170;SDS011;5127;50.922;6.988;2022-08-27T04:05:22;10.40;;;8.98;;
10170;SDS011;5127;50.922;6.988;2022-08-27T04:07:50;10.30;;;8.25;;
10170;SDS011;5127;50.922;6.988;2022-08-27T04:10:17;9.48;;;8.02;;
10170;SDS011;5127;50.922;6.988;2022-08-27T04:12:47;9.50;;;7.22;;
10170;SDS011;5127;50.922;6.988;2022-08-27T04:15:14;7.43;;;6.65;;
10170;SDS011;5127;50.922;6.988;2022-08-27T04:17:42;8.10;;;6.53;;
10170;SDS011;5127;50.922;6.988;2022-08-27T04:20:09;7.30;;;6.60;;
10170;SDS011;5127;50.922;6.988;2022-08-27T04:22:37;8.57;;;6.07;;
10170;SDS011;5127;50.922;6.988;2022-08-27T04:25:04;7.85;;;6.07;;
10170;SDS011;5127;50.922;6.988;2022-08-27T04:27:32;8.65;;;6.47;;
10170;SDS011;5127;50.922;6.988;2022-08-27T04:30:01;9.57;;;6.75;;
10170;SDS011;5127;50.922;6.988;2022-08-27T04:32:29;7.85;;;6.95;;
10170;SDS011;5127;50.922;6.988;2022-08-27T04:34:57;9.77;;;6.68;;
10170;SDS011;5127;50.922;6.988;2022-08-27T04:37:28;10.48;;;6.50;;
10170;SDS011;5127;50.922;6.988;2022-08-27T04:39:56;8.40;;;6.53;;
10170;SDS011;5127;50.922;6.988;2022-08-27T04:42:23;8.30;;;6.90;;
10170;SDS011;5127;50.922;6.988;2022-08-27T04:44:50;7.07;;;6.43;;
10170;SDS011;5127;50.922;6.988;2022-08-27T04:47:19;7.78;;;6.97;;
10170;SDS011;5127;50.922;6.988;2022-08-27T04:49:47;6.78;;;6.07;;
10170;SDS011;5127;50.922;6.988;2022-08-27T04:52:14;7.93;;;7.15;;
10170;SDS011;5127;50.922;6.988;2022-08-27T04:54:41;7.30;;;6.45;;
10170;SDS011;5127;50.922;6.988;2022-08-27T04:57:09;8.88;;;7.57;;
10170;SDS011;5127;50.922;6.988;2022-08-27T04:59:36;9.45;;;7.20;;
10170;SDS011;5127;50.922;6.988;2022-08-27T05:02:05;11.45;;;7.80;;
10170;SDS011;5127;50.922;6.988;2022-08-27T05:04:37;8.52;;;7.10;;
10170;SDS011;5127;50.922;6.988;2022-08-27T05:07:06;7.80;;;7.10;;
10170;SDS011;5127;50.922;6.988;2022-08-27T05:09:35;8.80;;;7.45;;
10170;SDS011;5127;50.922;6.988;2022-08-27T05:12:02;8.57;;;7.72;;
10170;SDS011;5127;50.922;6.988;2022-08-27T05:14:29;10.10;;;8.88;;
10170;SDS011;5127;50.922;6.988;2022-08-27T05:16:57;10.70;;;9.60;;
10170;SDS011;5127;50.922;6.988;2022-08-27T05:19:25;10.77;;;9.43;;
10170;SDS011;5127;50.922;6.988;2022-08-27T05:21:53;10.38;;;9.27;;
10170;SDS011;5127;50.922;6.988;2022-08-27T05:24:21;9.65;;;8.75;;
10170;SDS011;5127;50.922;6.988;2022-08-27T05:26:49;10.10;;;8.73;;
10170;SDS011;5127;50.922;6.988;2022-08-27T05:29:16;9.80;;;8.18;;
10170;SDS011;5127;50.922;6.988;2022-08-27T05:31:44;9.57;;;7.15;;
10170;SDS011;5127;50.922;6.988;2022-08-27T05:34:13;10.20;;;6.70;;
10170;SDS011;5127;50.922;6.988;2022-08-27T05:36:41;9.38;;;6.25;;
10170;SDS011;5127;50.922;6.988;2022-08-27T05:39:10;8.05;;;5.18;;
10170;SDS011;5127;50.922;6.988;2022-08-27T05:41:37;8.13;;;4.95;;
10170;SDS011;5127;50.922;6.988;2022-08-27T05:44:05;6.43;;;5.32;;
10170;SDS011;5127;50.922;6.988;2022-08-27T05:46:36;6.70;;;4.80;;
10170;SDS011;5127;50.922;6.988;2022-08-27T05:49:05;6.15;;;5.32;;
10170;SDS011;5127;50.922;6.988;2022-08-27T05:51:34;6.13;;;5.20;;
10170;SDS011;5127;50.922;6.988;2022-08-27T05:54:03;5.68;;;5.18;;
10170;SDS011;5127;50.922;6.988;2022-08-27T05:56:33;6.93;;;4.90;;
10170;SDS011;5127;50.922;6.988;2022-08-27T05:59:02;5.60;;;5.00;;
10170;SDS011;5127;50.922;6.988;2022-08-27T06:01:49;5.23;;;4.70;;
10170;SDS011;5127;50.922;6.988;2022-08-27T06:04:18;6.57;;;4.38;;
10170;SDS011;5127;50.922;6.988;2022-08-27T06:06:47;5.03;;;4.00;;
10170;SDS011;5127;50.922;6.988;2022-08-27T06:09:16;5.73;;;4.07;;
10170;SDS011;5127;50.922;6.988;2022-08-27T06:11:46;5.32;;;3.88;;
10170;SDS011;5127;50.922;6.988;2022-08-27T06:14:14;6.03;;;4.85;;
10170;SDS011;5127;50.922;6.988;2022-08-27T06:16:41;4.88;;;4.47;;
10170;SDS011;5127;50.922;6.988;2022-08-27T06:19:09;5.47;;;4.68;;
10170;SDS011;5127;50.922;6.988;2022-08-27T06:21:37;5.57;;;4.88;;
10170;SDS011;5127;50.922;6.988;2022-08-27T06:24:06;6.13;;;5.50;;
10170;SDS011;5127;50.922;6.988;2022-08-27T06:26:34;6.25;;;4.88;;
10170;SDS011;5127;50.922;6.988;2022-08-27T06:29:03;5.30;;;4.83;;
10170;SDS011;5127;50.922;6.988;2022-08-27T06:31:32;5.17;;;4.77;;
10170;SDS011;5127;50.922;6.988;2022-08-27T06:34:01;4.70;;;4.30;;
10170;SDS011;5127;50.922;6.988;2022-08-27T06:36:30;5.13;;;4.70;;
10170;SDS011;5127;50.922;6.988;2022-08-27T06:38:57;6.23;;;5.63;;
10170;SDS011;5127;50.922;6.988;2022-08-27T06:41:25;5.15;;;4.72;;
10170;SDS011;5127;50.922;6.988;2022-08-27T06:43:55;6.35;;;5.28;;
10170;SDS011;5127;50.922;6.988;2022-08-27T06:46:25;6.63;;;5.68;;
10170;SDS011;5127;50.922;6.988;2022-08-27T06:48:54;6.20;;;5.60;;
10170;SDS011;5127;50.922;6.988;2022-08-27T06:51:23;5.45;;;4.97;;
10170;SDS011;5127;50.922;6.988;2022-08-27T06:53:53;6.30;;;4.93;;
10170;SDS011;5127;50.922;6.988;2022-08-27T06:56:22;5.10;;;4.70;;
10170;SDS011;5127;50.922;6.988;2022-08-27T06:58:50;5.95;;;4.82;;
10170;SDS011;5127;50.922;6.988;2022-08-27T07:01:19;5.63;;;5.13;;
10170;SDS011;5127;50.922;6.988;2022-08-27T07:03:49;5.65;;;4.68;;
10170;SDS011;5127;50.922;6.988;2022-08-27T07:06:17;6.07;;;4.60;;
10170;SDS011;5127;50.922;6.988;2022-08-27T07:08:44;4.43;;;4.05;;
10170;SDS011;5127;50.922;6.988;2022-08-27T07:11:12;4.15;;;3.85;;
10170;SDS011;5127;50.922;6.988;2022-08-27T07:13:40;4.80;;;3.80;;
10170;SDS011;5127;50.922;6.988;2022-08-27T07:16:09;3.97;;;3.60;;
10170;SDS011;5127;50.922;6.988;2022-08-27T07:18:38;4.67;;;4.27;;
10170;SDS011;5127;50.922;6.988;2022-08-27T07:21:07;3.73;;;3.43;;
10170;SDS011;5127;50.922;6.988;2022-08-27T07:23:35;4.00;;;3.70;;
10170;SDS011;5127;50.922;6.988;2022-08-27T07:26:05;4.43;;;4.07;;
10170;SDS011;5127;50.922;6.988;2022-08-27T07:28:34;4.30;;;3.90;;
10170;SDS011;5127;50.922;6.988;2022-08-27T07:31:03;4.45;;;4.10;;
10170;SDS011;5127;50.922;6.988;2022-08-27T07:33:33;4.97;;;4.57;;
10170;SDS011;5127;50.922;6.988;2022-08-27T07:36:00;6.05;;;5.47;;
10170;SDS011;5127;50.922;6.988;2022-08-27T07:38:30;6.60;;;6.00;;
10170;SDS011;5127;50.922;6.988;2022-08-27T07:40:58;6.07;;;5.47;;
10170;SDS011;5127;50.922;6.988;2022-08-27T07:43:25;6.73;;;5.87;;
10170;SDS011;5127;50.922;6.988;2022-08-27T07:46:10;6.88;;;6.28;;
10170;SDS011;5127;50.922;6.988;2022-08-27T07:48:38;6.75;;;6.25;;
10170;SDS011;5127;50.922;6.988;2022-08-27T07:51:11;6.43;;;5.82;;
10170;SDS011;5127;50.922;6.988;2022-08-27T07:53:41;5.78;;;5.35;;
10170;SDS011;5127;50.922;6.988;2022-08-27T07:56:08;5.72;;;5.18;;
10170;SDS011;5127;50.922;6.988;2022-08-27T07:58:36;5.30;;;4.82;;
10170;SDS011;5127;50.922;6.988;2022-08-27T08:01:04;4.20;;;3.90;;
10170;SDS011;5127;50.922;6.988;2022-08-27T08:03:32;5.00;;;4.60;;
10170;SDS011;5127;50.922;6.988;2022-08-27T08:06:01;6.00;;;5.40;;
10170;SDS011;5127;50.922;6.988;2022-08-27T08:08:31;6.20;;;5.60;;
10170;SDS011;5127;50.922;6.988;2022-08-27T08:11:01;6.22;;;5.63;;
10170;SDS011;5127;50.922;6.988;2022-08-27T08:13:29;6.47;;;5.78;;
10170;SDS011;5127;50.922;6.988;2022-08-27T08:15:57;6.63;;;5.82;;
10170;SDS011;5127;50.922;6.988;2022-08-27T08:18:24;5.75;;;5.25;;
10170;SDS011;5127;50.922;6.988;2022-08-27T08:20:52;6.18;;;5.57;;
10170;SDS011;5127;50.922;6.988;2022-08-27T08:23:24;6.18;;;5.63;;
10170;SDS011;5127;50.922;6.988;2022-08-27T08:25:51;5.75;;;5.25;;
10170;SDS011;5127;50.922;6.988;2022-08-27T08:28:20;5.32;;;4.68;;
10170;SDS011;5127;50.922;6.988;2022-08-27T08:30:48;4.43;;;4.07;;
10170;SDS011;5127;50.922;6.988;2022-08-27T08:33:16;4.30;;;3.95;;
10170;SDS011;5127;50.922;6.988;2022-08-27T08:35:43;4.55;;;4.22;;
10170;SDS011;5127;50.922;6.988;2022-08-27T08:38:11;4.75;;;4.35;;
10170;SDS011;5127;50.922;6.988;2022-08-27T08:40:39;4.25;;;3.85;;
10170;SDS011;5127;50.922;6.988;2022-08-27T08:43:09;5.00;;;4.50;;
10170;SDS011;5127;50.922;6.988;2022-08-27T08:45:48;5.45;;;4.07;;
10170;SDS011;5127;50.922;6.988;2022-08-27T08:48:17;6.28;;;5.72;;
10170;SDS011;5127;50.922;6.988;2022-08-27T08:50:50;5.43;;;4.93;;
10170;SDS011;5127;50.922;6.988;2022-08-27T08:53:23;5.25;;;4.85;;
10170;SDS011;5127;50.922;6.988;2022-08-27T08:55:59;5.25;;;4.78;;
10170;SDS011;5127;50.922;6.988;2022-08-27T08:58:31;5.00;;;4.50;;
10170;SDS011;5127;50.922;6.988;2022-08-27T09:01:06;5.88;;;4.40;;
10170;SDS011;5127;50.922;6.988;2022-08-27T09:03:35;5.35;;;4.45;;
10170;SDS011;5127;50.922;6.988;2022-08-27T09:06:07;4.40;;;4.07;;
10170;SDS011;5127;50.922;6.988;2022-08-27T09:08:40;5.50;;;3.83;;
10170;SDS011;5127;50.922;6.988;2022-08-27T09:11:10;4.82;;;3.80;;
10170;SDS011;5127;50.922;6.988;2022-08-27T09:13:46;5.80;;;3.78;;
10170;SDS011;5127;50.922;6.988;2022-08-27T09:16:17;5.47;;;4.38;;
10170;SDS011;5127;50.922;6.988;2022-08-27T09:18:44;4.20;;;3.38;;
10170;SDS011;5127;50.922;6.988;2022-08-27T09:21:17;4.25;;;3.90;;
10170;SDS011;5127;50.922;6.988;2022-08-27T09:23:52;5.10;;;4.60;;
10170;SDS011;5127;50.922;6.988;2022-08-27T09:26:29;4.78;;;4.13;;
10170;SDS011;5127;50.922;6.988;2022-08-27T09:28:58;4.45;;;3.72;;
10170;SDS011;5127;50.922;6.988;2022-08-27T09:31:47;4.93;;;3.92;;
10170;SDS011;5127;50.922;6.988;2022-08-27T09:34:20;4.00;;;3.65;;
10170;SDS011;5127;50.922;6.988;2022-08-27T09:36:56;3.63;;;3.25;;
10170;SDS011;5127;50.922;6.988;2022-08-27T09:39:31;4.75;;;3.65;;
10170;SDS011;5127;50.922;6.988;2022-08-27T09:42:01;4.88;;;3.85;;
10170;SDS011;5127;50.922;6.988;2022-08-27T09:44:29;3.88;;;3.55;;
10170;SDS011;5127;50.922;6.988;2022-08-27T09:46:59;4.20;;;2.97;;
10170;SDS011;5127;50.922;6.988;2022-08-27T09:49:28;4.03;;;3.42;;
10170;SDS011;5127;50.922;6.988;2022-08-27T09:51:59;4.15;;;3.75;;
10170;SDS011;5127;50.922;6.988;2022-08-27T09:54:35;4.30;;;4.00;;
10170;SDS011;5127;50.922;6.988;2022-08-27T09:57:05;4.40;;;3.95;;
10170;SDS011;5127;50.922;6.988;2022-08-27T09:59:35;4.13;;;3.75;;
10170;SDS011;5127;50.922;6.988;2022-08-27T10:02:11;4.65;;;3.70;;
10170;SDS011;5127;50.922;6.988;2022-08-27T10:04:41;4.55;;;3.97;;
10170;SDS011;5127;50.922;6.988;2022-08-27T10:07:16;4.47;;;4.07;;
10170;SDS011;5127;50.922;6.988;2022-08-27T10:09:49;4.55;;;3.80;;
10170;SDS011;5127;50.922;6.988;2022-08-27T10:12:21;4.13;;;3.63;;
10170;SDS011;5127;50.922;6.988;2022-08-27T10:14:54;4.35;;;3.85;;
10170;SDS011;5127;50.922;6.988;2022-08-27T10:17:28;4.10;;;3.75;;
10170;SDS011;5127;50.922;6.988;2022-08-27T10:20:02;5.28;;;4.03;;
10170;SDS011;5127;50.922;6.988;2022-08-27T10:22:39;4.35;;;3.42;;
10170;SDS011;5127;50.922;6.988;2022-08-27T10:25:16;3.72;;;3.42;;
10170;SDS011;5127;50.922;6.988;2022-08-27T10:27:53;4.07;;;2.90;;
10170;SDS011;5127;50.922;6.988;2022-08-27T10:30:32;3.90;;;3.20;;
10170;SDS011;5127;50.922;6.988;2022-08-27T10:33:12;4.20;;;3.40;;
10170;SDS011;5127;50.922;6.988;2022-08-27T10:35:47;4.65;;;3.35;;
10170;SDS011;5127;50.922;6.988;2022-08-27T10:38:20;3.83;;;3.40;;
10170;SDS011;5127;50.922;6.988;2022-08-27T10:40:50;4.32;;;3.30;;
10170;SDS011;5127;50.922;6.988;2022-08-27T10:43:26;3.25;;;2.95;;
10170;SDS011;5127;50.922;6.988;2022-08-27T10:46:13;5.22;;;3.13;;
10170;SDS011;5127;50.922;6.988;2022-08-27T10:49:00;4.85;;;3.47;;
10170;SDS011;5127;50.922;6.988;2022-08-27T10:51:38;2.97;;;2.72;;
10170;SDS011;5127;50.922;6.988;2022-08-27T10:54:11;3.88;;;2.60;;
10170;SDS011;5127;50.922;6.988;2022-08-27T10:56:49;3.42;;;3.00;;
10170;SDS011;5127;50.922;6.988;2022-08-27T10:59:23;2.63;;;2.42;;
10170;SDS011;5127;50.922;6.988;2022-08-27T11:01:57;2.60;;;2.40;;
10170;SDS011;5127;50.922;6.988;2022-08-27T11:04:38;4.80;;;2.20;;
10170;SDS011;5127;50.922;6.988;2022-08-27T11:07:10;3.22;;;2.25;;
10170;SDS011;5127;50.922;6.988;2022-08-27T11:09:45;2.42;;;2.22;;
10170;SDS011;5127;50.922;6.988;2022-08-27T11:12:16;4.68;;;2.42;;
10170;SDS011;5127;50.922;6.988;2022-08-27T11:14:49;2.95;;;2.47;;
10170;SDS011;5127;50.922;6.988;2022-08-27T11:17:20;2.70;;;2.17;;
10170;SDS011;5127;50.922;6.988;2022-08-27T11:19:55;4.32;;;2.30;;
10170;SDS011;5127;50.922;6.988;2022-08-27T11:22:30;3.35;;;2.10;;
10170;SDS011;5127;50.922;6.988;2022-08-27T11:25:02;3.00;;;2.17;;
10170;SDS011;5127;50.922;6.988;2022-08-27T11:27:36;3.38;;;1.92;;
10170;SDS011;5127;50.922;6.988;2022-08-27T11:30:06;2.78;;;2.08;;
10170;SDS011;5127;50.922;6.988;2022-08-27T11:32:53;3.15;;;2.20;;
10170;SDS011;5127;50.922;6.988;2022-08-27T11:35:33;2.50;;;2.00;;
10170;SDS011;5127;50.922;6.988;2022-08-27T11:38:23;2.85;;;2.03;;
10170;SDS011;5127;50.922;6.988;2022-08-27T11:41:12;3.28;;;1.77;;
10170;SDS011;5127;50.922;6.988;2022-08-27T11:43:53;1.90;;;1.70;;
10170;SDS011;5127;50.922;6.988;2022-08-27T11:46:21;2.90;;;2.08;;
10170;SDS011;5127;50.922;6.988;2022-08-27T11:48:55;5.03;;;2.25;;
10170;SDS011;5127;50.922;6.988;2022-08-27T11:51:28;2.30;;;2.10;;
10170;SDS011;5127;50.922;6.988;2022-08-27T11:54:00;2.28;;;2.08;;
10170;SDS011;5127;50.922;6.988;2022-08-27T11:56:34;4.00;;;2.40;;
10170;SDS011;5127;50.922;6.988;2022-08-27T11:59:09;3.25;;;2.70;;
10170;SDS011;5127;50.922;6.988;2022-08-27T12:01:45;3.28;;;2.70;;
10170;SDS011;5127;50.922;6.988;2022-08-27T12:04:21;3.72;;;2.72;;
10170;SDS011;5127;50.922;6.988;2022-08-27T12:07:01;4.05;;;3.28;;
10170;SDS011;5127;50.922;6.988;2022-08-27T12:09:42;4.65;;;3.40;;
10170;SDS011;5127;50.922;6.988;2022-08-27T12:12:19;5.00;;;3.13;;
10170;SDS011;5127;50.922;6.988;2022-08-27T12:14:53;3.75;;;2.80;;
10170;SDS011;5127;50.922;6.988;2022-08-27T12:17:28;3.42;;;3.13;;
10170;SDS011;5127;50.922;6.988;2022-08-27T12:20:08;3.65;;;3.35;;
10170;SDS011;5127;50.922;6.988;2022-08-27T12:22:47;4.70;;;3.38;;
10170;SDS011;5127;50.922;6.988;2022-08-27T12:25:53;3.90;;;3.10;;
10170;SDS011;5127;50.922;6.988;2022-08-27T12:28:22;2.92;;;2.67;;
10170;SDS011;5127;50.922;6.988;2022-08-27T12:30:51;4.32;;;3.55;;
10170;SDS011;5127;50.922;6.988;2022-08-27T12:33:21;5.13;;;4.47;;
10170;SDS011;5127;50.922;6.988;2022-08-27T12:35:55;4.47;;;4.07;;
10170;SDS011;5127;50.922;6.988;2022-08-27T12:38:35;5.45;;;3.55;;
10170;SDS011;5127;50.922;6.988;2022-08-27T12:41:08;4.57;;;4.10;;
10170;SDS011;5127;50.922;6.988;2022-08-27T12:43:36;5.10;;;4.20;;
10170;SDS011;5127;50.922;6.988;2022-08-27T12:46:10;3.83;;;3.58;;
10170;SDS011;5127;50.922;6.988;2022-08-27T12:48:41;4.40;;;4.00;;
10170;SDS011;5127;50.922;6.988;2022-08-27T12:51:12;4.07;;;3.65;;
10170;SDS011;5127;50.922;6.988;2022-08-27T12:53:49;3.20;;;2.90;;
10170;SDS011;5127;50.922;6.988;2022-08-27T12:56:36;2.83;;;2.63;;
10170;SDS011;5127;50.922;6.988;2022-08-27T12:59:20;3.35;;;2.60;;
10170;SDS011;5127;50.922;6.988;2022-08-27T13:02:08;2.78;;;2.20;;
10170;SDS011;5127;50.922;6.988;2022-08-27T13:04:46;3.65;;;2.28;;
10170;SDS011;5127;50.922;6.988;2022-08-27T13:07:23;2.42;;;2.22;;
10170;SDS011;5127;50.922;6.988;2022-08-27T13:09:52;4.53;;;2.17;;
10170;SDS011;5127;50.922;6.988;2022-08-27T13:12:22;3.70;;;2.40;;
10170;SDS011;5127;50.922;6.988;2022-08-27T13:14:50;2.85;;;2.35;;
10170;SDS011;5127;50.922;6.988;2022-08-27T13:17:18;6.05;;;2.60;;
10170;SDS011;5127;50.922;6.988;2022-08-27T13:19:48;3.17;;;2.70;;
10170;SDS011;5127;50.922;6.988;2022-08-27T13:22:22;5.43;;;2.70;;
10170;SDS011;5127;50.922;6.988;2022-08-27T13:24:51;3.22;;;2.92;;
10170;SDS011;5127;50.922;6.988;2022-08-27T13:27:22;2.78;;;2.50;;
10170;SDS011;5127;50.922;6.988;2022-08-27T13:29:51;3.75;;;2.75;;
10170;SDS011;5127;50.922;6.988;2022-08-27T13:32:20;2.42;;;2.22;;
10170;SDS011;5127;50.922;6.988;2022-08-27T13:34:53;3.42;;;2.40;;
10170;SDS011;5127;50.922;6.988;2022-08-27T13:37:21;3.00;;;2.65;;
10170;SDS011;5127;50.922;6.988;2022-08-27T13:39:51;4.40;;;2.53;;
10170;SDS011;5127;50.922;6.988;2022-08-27T13:42:21;2.90;;;2.70;;
10170;SDS011;5127;50.922;6.988;2022-08-27T13:44:50;2.50;;;2.30;;
10170;SDS011;5127;50.922;6.988;2022-08-27T13:47:20;4.85;;;2.85;;
10170;SDS011;5127;50.922;6.988;2022-08-27T13:49:49;2.80;;;2.50;;
10170;SDS011;5127;50.922;6.988;2022-08-27T13:52:28;3.95;;;2.63;;
10170;SDS011;5127;50.922;6.988;2022-08-27T13:55:00;2.67;;;2.47;;
10170;SDS011;5127;50.922;6.988;2022-08-27T13:57:41;3.33;;;2.50;;
10170;SDS011;5127;50.922;6.988;2022-08-27T14:00:12;3.47;;;2.25;;
10170;SDS011;5127;50.922;6.988;2022-08-27T14:02:42;4.88;;;2.30;;
10170;SDS011;5127;50.922;6.988;2022-08-27T14:05:12;4.38;;;2.30;;
10170;SDS011;5127;50.922;6.988;2022-08-27T14:07:42;2.70;;;2.50;;
10170;SDS011;5127;50.922;6.988;2022-08-27T14:10:28;2.67;;;2.22;;
10170;SDS011;5127;50.922;6.988;2022-08-27T14:12:58;3.38;;;2.50;;
10170;SDS011;5127;50.922;6.988;2022-08-27T14:15:29;3.20;;;2.50;;
10170;SDS011;5127;50.922;6.988;2022-08-27T14:17:59;5.82;;;2.78;;
10170;SDS011;5127;50.922;6.988;2022-08-27T14:20:26;3.80;;;2.67;;
10170;SDS011;5127;50.922;6.988;2022-08-27T14:22:54;3.97;;;2.22;;
10170;SDS011;5127;50.922;6.988;2022-08-27T14:25:21;4.38;;;2.03;;
10170;SDS011;5127;50.922;6.988;2022-08-27T14:27:51;2.40;;;2.15;;
10170;SDS011;5127;50.922;6.988;2022-08-27T14:30:22;4.55;;;2.50;;
10170;SDS011;5127;50.922;6.988;2022-08-27T14:32:50;2.85;;;2.10;;
10170;SDS011;5127;50.922;6.988;2022-08-27T14:35:18;3.83;;;2.50;;
10170;SDS011;5127;50.922;6.988;2022-08-27T14:37:46;2.95;;;2.40;;
10170;SDS011;5127;50.922;6.988;2022-08-27T14:40:13;3.97;;;2.55;;
10170;SDS011;5127;50.922;6.988;2022-08-27T14:42:41;3.72;;;2.45;;
10170;SDS011;5127;50.922;6.988;2022-08-27T14:45:09;2.70;;;2.25;;
10170;SDS011;5127;50.922;6.988;2022-08-27T14:47:37;3.20;;;2.13;;
10170;SDS011;5127;50.922;6.988;2022-08-27T14:50:06;3.35;;;2.20;;
10170;SDS011;5127;50.922;6.988;2022-08-27T14:52:35;5.55;;;1.90;;
10170;SDS011;5127;50.922;6.988;2022-08-27T14:55:03;2.40;;;1.70;;
10170;SDS011;5127;50.922;6.988;2022-08-27T14:57:31;2.85;;;2.08;;
10170;SDS011;5127;50.922;6.988;2022-08-27T14:59:59;3.80;;;2.33;;
10170;SDS011;5127;50.922;6.988;2022-08-27T15:02:27;3.50;;;2.33;;
10170;SDS011;5127;50.922;6.988;2022-08-27T15:04:55;2.60;;;1.92;;
10170;SDS011;5127;50.922;6.988;2022-08-27T15:07:22;4.28;;;2.40;;
10170;SDS011;5127;50.922;6.988;2022-08-27T15:09:49;2.83;;;2.35;;
10170;SDS011;5127;50.922;6.988;2022-08-27T15:12:17;2.80;;;2.08;;
10170;SDS011;5127;50.922;6.988;2022-08-27T15:14:44;3.20;;;2.55;;
10170;SDS011;5127;50.922;6.988;2022-08-27T15:17:11;3.10;;;2.50;;
10170;SDS011;5127;50.922;6.988;2022-08-27T15:19:40;3.35;;;2.10;;